EDMA/AGB METAR and TAF weather

Enter ICAO airport designator
Station Type Date Time Source
EDMA METAR 2019/10/18 05:50 UTC NOAA

EDMA 180550Z 12003KT CAVOK 09/07 Q1015


Station Type Date Time Source
EDMA Decoded METAR 2019/10/18 05:50 UTC NOAA

Augsburg, Germany (EDMA) 48-26N 010-56E 463M
Oct 18, 2019 - 01:50 AM EDT / 2019.10.18 0550 UTC
Wind: from the ESE (120 degrees) at 3 MPH (3 KT):0
Visibility: greater than 7 mile(s):0
Temperature: 48 F (9 C)
Dew Point: 44 F (7 C)
Relative Humidity: 87%
Pressure (altimeter): 29.97 in. Hg (1015 hPa)
ob: EDMA 180550Z 12003KT CAVOK 09/07 Q1015
cycle: 6

Station Type Date Time Source
EDMA TAF 2010/02/22 13:50 UTC NOAA

METAR EDMA 221350Z 23006KT CAVOK 10/02 Q0996

Example: see airport list